createdAt,value
2024-02-10T00:02:17.303Z,87.98
2024-02-10T00:04:44.200Z,88.22
2024-02-10T00:07:11.196Z,88.76
2024-02-10T00:09:38.844Z,88.22
2024-02-10T00:12:06.633Z,88.25
2024-02-10T00:14:35.430Z,89.13
2024-02-10T00:17:04.486Z,88.78
2024-02-10T00:19:31.039Z,88.85
2024-02-10T00:21:58.047Z,89.00
2024-02-10T00:24:27.616Z,88.77
2024-02-10T00:26:54.136Z,88.81
2024-02-10T00:29:23.413Z,89.53
2024-02-10T00:31:49.963Z,89.49
2024-02-10T00:34:16.638Z,89.08
2024-02-10T00:36:43.324Z,88.80
2024-02-10T00:39:11.725Z,89.03
2024-02-10T00:41:39.894Z,89.10
2024-02-10T00:44:06.399Z,89.05
2024-02-10T00:46:33.069Z,89.47
2024-02-10T00:48:59.792Z,90.25
2024-02-10T00:51:28.358Z,89.86
2024-02-10T00:53:54.994Z,89.47
2024-02-10T00:56:21.504Z,90.03
2024-02-10T00:58:49.447Z,90.00
2024-02-10T01:01:21.553Z,90.38
2024-02-10T01:03:50.230Z,90.59
2024-02-10T01:06:21.340Z,89.77
2024-02-10T01:08:50.208Z,90.30
2024-02-10T01:11:19.311Z,90.20
2024-02-10T01:13:47.121Z,90.17
2024-02-10T01:16:16.890Z,90.60
2024-02-10T01:18:45.025Z,90.74
2024-02-10T01:21:12.100Z,90.78
2024-02-10T01:23:43.377Z,91.08
2024-02-10T01:26:13.325Z,90.91
2024-02-10T01:28:45.722Z,91.32
2024-02-10T01:33:44.301Z,91.59
2024-02-10T01:36:11.929Z,91.56
2024-02-10T01:38:44.193Z,92.03
2024-02-10T01:41:12.671Z,92.16
2024-02-10T01:43:40.170Z,91.74
2024-02-10T01:46:08.195Z,91.58
2024-02-10T01:48:35.666Z,91.95
2024-02-10T01:51:02.701Z,92.75
2024-02-10T01:53:29.465Z,92.22
2024-02-10T01:55:56.506Z,92.12
2024-02-10T01:58:24.441Z,92.58
2024-02-10T02:00:50.964Z,93.01
2024-02-10T02:03:17.533Z,93.12
2024-02-10T02:05:45.174Z,92.81
2024-02-10T02:08:12.293Z,93.34
2024-02-10T02:10:39.025Z,92.96
2024-02-10T02:13:06.551Z,93.08
2024-02-10T02:15:33.671Z,93.33
2024-02-10T02:18:00.990Z,93.53
2024-02-10T02:20:29.596Z,93.80
2024-02-10T02:22:56.785Z,93.68
2024-02-10T02:25:24.515Z,93.87
2024-02-10T02:27:51.120Z,93.96
2024-02-10T02:30:17.900Z,94.61
2024-02-10T02:32:44.855Z,93.48
2024-02-10T02:35:11.637Z,94.01
2024-02-10T02:37:42.982Z,94.68
2024-02-10T02:40:11.361Z,94.46
2024-02-10T02:42:38.182Z,94.14
2024-02-10T02:45:07.387Z,94.45
2024-02-10T02:47:35.904Z,94.18
2024-02-10T02:50:02.879Z,94.69
2024-02-10T02:52:31.455Z,94.17
2024-02-10T02:55:00.518Z,94.74
2024-02-10T02:57:27.268Z,94.60
2024-02-10T02:59:53.766Z,94.31
2024-02-10T03:02:20.396Z,94.42
2024-02-10T03:04:47.061Z,94.06
2024-02-10T03:07:19.581Z,94.36
2024-02-10T03:09:46.867Z,94.44
2024-02-10T03:12:13.437Z,93.91
2024-02-10T03:14:41.350Z,94.60
2024-02-10T03:17:12.097Z,93.69
2024-02-10T03:19:38.713Z,94.12
2024-02-10T03:22:06.942Z,94.33
2024-02-10T03:24:34.531Z,94.66
2024-02-10T03:27:04.178Z,94.09
2024-02-10T03:29:31.104Z,94.55
2024-02-10T03:31:57.651Z,94.42
2024-02-10T03:34:24.330Z,94.72
2024-02-10T03:36:50.838Z,94.78
2024-02-10T03:39:17.825Z,94.54
2024-02-10T03:41:44.260Z,94.79
2024-02-10T03:44:10.705Z,95.19
2024-02-10T03:46:37.262Z,94.25
2024-02-10T03:49:03.789Z,94.34
2024-02-10T03:51:30.927Z,94.68
2024-02-10T03:53:57.401Z,94.09
2024-02-10T03:56:25.110Z,94.52
2024-02-10T03:58:51.980Z,94.57
2024-02-10T04:01:18.608Z,95.14
2024-02-10T04:03:46.507Z,94.61
2024-02-10T04:06:16.903Z,95.20
2024-02-10T04:08:47.349Z,94.84
2024-02-10T04:11:15.036Z,95.44
2024-02-10T04:13:43.112Z,95.50
2024-02-10T04:16:13.662Z,95.76
2024-02-10T04:18:42.096Z,95.61
2024-02-10T04:21:09.651Z,95.29
2024-02-10T04:23:38.700Z,95.89
2024-02-10T04:26:08.187Z,96.23
2024-02-10T04:28:35.053Z,95.65
2024-02-10T04:31:01.540Z,95.32
2024-02-10T04:33:28.076Z,96.26
2024-02-10T04:35:54.600Z,95.65
2024-02-10T04:38:23.158Z,96.07
2024-02-10T04:40:49.711Z,96.25
2024-02-10T04:43:18.671Z,96.23
2024-02-10T04:45:45.569Z,95.94
2024-02-10T04:48:14.970Z,96.00
2024-02-10T04:50:42.386Z,95.78
2024-02-10T04:53:09.194Z,95.35
2024-02-10T04:55:37.719Z,95.73
2024-02-10T04:58:04.711Z,96.20
2024-02-10T05:00:31.164Z,95.89
2024-02-10T05:02:57.633Z,95.67
2024-02-10T05:05:24.343Z,95.15
2024-02-10T05:07:54.670Z,94.97
2024-02-10T05:10:21.600Z,95.50
2024-02-10T05:12:49.169Z,94.98
2024-02-10T05:15:19.789Z,94.75
2024-02-10T05:17:50.147Z,94.76
2024-02-10T05:20:24.766Z,95.29
2024-02-10T05:22:59.477Z,94.80
2024-02-10T05:25:28.744Z,94.97
2024-02-10T05:28:02.762Z,94.60
2024-02-10T05:30:29.873Z,94.55
2024-02-10T05:33:05.934Z,94.92
2024-02-10T05:35:33.248Z,94.60
2024-02-10T05:38:03.958Z,95.02
2024-02-10T05:40:31.559Z,94.26
2024-02-10T05:43:00.523Z,94.74
2024-02-10T05:45:27.516Z,94.67
2024-02-10T05:47:54.177Z,94.78
2024-02-10T05:50:24.327Z,94.94
2024-02-10T05:52:52.590Z,94.42
2024-02-10T05:55:22.587Z,94.48
2024-02-10T05:57:49.456Z,94.30
2024-02-10T06:00:16.869Z,94.04
2024-02-10T06:02:43.453Z,94.44
2024-02-10T06:05:17.217Z,94.10
2024-02-10T06:07:44.472Z,94.53
2024-02-10T06:10:15.413Z,94.41
2024-02-10T06:12:53.017Z,94.18
2024-02-10T06:15:20.758Z,93.84
2024-02-10T06:17:53.952Z,94.31
2024-02-10T06:20:23.996Z,94.67
2024-02-10T06:22:54.207Z,93.96
2024-02-10T06:25:25.978Z,94.08
2024-02-10T06:27:58.286Z,93.96
2024-02-10T06:30:29.409Z,94.35
2024-02-10T06:32:59.336Z,94.15
2024-02-10T06:35:26.993Z,94.54
2024-02-10T06:37:55.576Z,94.61
2024-02-10T06:40:23.912Z,94.26
2024-02-10T06:42:52.667Z,93.99
2024-02-10T06:45:22.278Z,94.12
2024-02-10T06:47:49.310Z,94.25
2024-02-10T06:50:16.218Z,94.18
2024-02-10T06:52:43.756Z,93.89
2024-02-10T06:55:13.694Z,93.75
2024-02-10T06:57:42.932Z,94.39
2024-02-10T07:00:16.956Z,93.77
2024-02-10T07:02:45.183Z,94.07
2024-02-10T07:05:14.192Z,93.81
2024-02-10T07:07:43.038Z,94.11
2024-02-10T07:10:16.156Z,94.20
2024-02-10T07:12:47.282Z,94.17
2024-02-10T07:15:18.565Z,93.87
2024-02-10T07:17:51.490Z,94.07
2024-02-10T07:20:25.139Z,94.21
2024-02-10T07:22:56.336Z,94.16
2024-02-10T07:25:27.800Z,94.36
2024-02-10T07:28:01.993Z,94.14
2024-02-10T07:30:30.537Z,94.34
2024-02-10T07:33:04.805Z,93.95
2024-02-10T07:35:32.687Z,94.06
2024-02-10T07:37:59.715Z,94.50
2024-02-10T07:40:26.299Z,94.03
2024-02-10T07:42:53.673Z,94.05
2024-02-10T07:45:21.159Z,94.78
2024-02-10T07:47:48.047Z,94.24
2024-02-10T07:50:15.517Z,94.80
2024-02-10T07:52:43.352Z,94.93
2024-02-10T07:55:14.257Z,95.06
2024-02-10T07:57:40.810Z,94.50
2024-02-10T08:00:11.014Z,94.83
2024-02-10T08:02:38.525Z,94.28
2024-02-10T08:05:06.179Z,93.95
2024-02-10T08:07:34.062Z,93.61
2024-02-10T08:10:01.880Z,93.85
2024-02-10T08:12:28.364Z,93.75
2024-02-10T08:14:56.830Z,93.38
2024-02-10T08:17:27.830Z,94.09
2024-02-10T08:19:58.173Z,93.76
2024-02-10T08:22:32.403Z,94.24
2024-02-10T08:25:00.421Z,94.46
2024-02-10T08:27:27.752Z,95.01
2024-02-10T08:29:55.226Z,94.36
2024-02-10T08:32:22.105Z,94.96
2024-02-10T08:34:49.607Z,94.01
2024-02-10T08:37:16.467Z,94.32
2024-02-10T08:39:44.942Z,94.57
2024-02-10T08:42:12.541Z,94.46
2024-02-10T08:44:39.118Z,94.56
2024-02-10T08:47:06.885Z,94.28
2024-02-10T08:49:36.187Z,93.91
2024-02-10T08:52:17.588Z,94.16
2024-02-10T08:54:45.122Z,94.59
2024-02-10T08:57:11.835Z,94.12
2024-02-10T08:59:42.597Z,94.10
2024-02-10T09:02:09.642Z,93.57
2024-02-10T09:04:39.935Z,93.26
2024-02-10T09:07:08.074Z,93.61
2024-02-10T09:09:35.159Z,93.80
2024-02-10T09:12:01.843Z,93.87
2024-02-10T09:14:28.456Z,93.91
2024-02-10T09:16:54.980Z,93.82
2024-02-10T09:19:21.582Z,92.92
2024-02-10T09:21:55.391Z,92.79
2024-02-10T09:24:26.233Z,93.53
2024-02-10T09:26:54.273Z,93.08
2024-02-10T09:29:20.714Z,91.87
2024-02-10T09:31:48.068Z,91.63
2024-02-10T09:34:15.555Z,92.32
2024-02-10T09:36:45.502Z,91.38
2024-02-10T09:39:17.128Z,91.45
2024-02-10T09:41:43.717Z,91.55
2024-02-10T09:44:12.055Z,90.28
2024-02-10T09:46:39.681Z,90.78
2024-02-10T09:49:09.886Z,90.29
2024-02-10T09:51:42.213Z,90.40
2024-02-10T09:54:15.019Z,90.78
2024-02-10T09:56:44.290Z,90.42
2024-02-10T09:59:17.533Z,89.28
2024-02-10T10:01:45.344Z,89.97
2024-02-10T10:04:12.498Z,89.65
2024-02-10T10:06:47.942Z,88.95
2024-02-10T10:09:19.206Z,88.66
2024-02-10T10:11:46.863Z,89.17
2024-02-10T10:14:18.075Z,88.76
2024-02-10T10:17:03.916Z,88.39
2024-02-10T10:19:31.239Z,88.09
2024-02-10T10:21:59.057Z,87.86
2024-02-10T10:24:29.840Z,89.05
2024-02-10T10:27:00.622Z,87.99
2024-02-10T10:29:30.217Z,88.16
2024-02-10T10:32:00.888Z,88.14
2024-02-10T10:34:30.839Z,88.00
2024-02-10T10:37:02.928Z,87.98
2024-02-10T10:39:32.450Z,88.56
2024-02-10T10:41:59.935Z,87.18
2024-02-10T10:44:29.359Z,88.74
2024-02-10T10:47:00.608Z,87.09
2024-02-10T10:49:27.212Z,86.82
2024-02-10T10:52:00.737Z,87.23
2024-02-10T10:54:34.619Z,86.84
2024-02-10T10:57:04.028Z,86.79
2024-02-10T10:59:36.798Z,86.65
2024-02-10T11:02:09.443Z,85.81
2024-02-10T11:04:36.352Z,86.42
2024-02-10T11:07:14.636Z,86.34
2024-02-10T11:09:53.818Z,86.64
2024-02-10T11:12:20.470Z,85.73
2024-02-10T11:14:57.721Z,85.42
2024-02-10T11:17:25.907Z,84.96
2024-02-10T11:20:06.360Z,85.37
2024-02-10T11:22:41.706Z,84.84
2024-02-10T11:25:16.596Z,84.35
2024-02-10T11:27:47.817Z,85.17
2024-02-10T11:30:14.419Z,84.35
2024-02-10T11:32:49.188Z,84.33
2024-02-10T11:35:16.069Z,85.09
2024-02-10T11:37:42.883Z,83.09
2024-02-10T11:40:12.998Z,84.39
2024-02-10T11:42:40.317Z,83.89
2024-02-10T11:45:11.335Z,84.51
2024-02-10T11:47:38.339Z,85.12
2024-02-10T11:50:05.908Z,84.11
2024-02-10T11:52:33.545Z,84.49
2024-02-10T11:55:00.176Z,84.00
2024-02-10T11:57:28.562Z,84.24
2024-02-10T11:59:56.927Z,83.62
2024-02-10T12:02:24.378Z,84.33
2024-02-10T12:04:52.203Z,83.00
2024-02-10T12:07:19.332Z,81.44
2024-02-10T12:09:45.971Z,82.53
2024-02-10T12:12:15.120Z,81.83
2024-02-10T12:14:41.823Z,82.12
2024-02-10T12:17:08.426Z,82.08
2024-02-10T12:19:41.766Z,82.51
2024-02-10T12:22:11.010Z,79.81
2024-02-10T12:24:42.722Z,80.13
2024-02-10T12:27:09.190Z,79.96
2024-02-10T12:29:39.335Z,80.67
2024-02-10T12:32:06.929Z,80.71
2024-02-10T12:34:33.558Z,80.28
2024-02-10T12:37:00.214Z,80.18
2024-02-10T12:39:26.770Z,81.12
2024-02-10T12:41:54.585Z,80.02
2024-02-10T12:44:21.206Z,81.04
2024-02-10T12:46:47.726Z,80.68
2024-02-10T12:49:14.744Z,80.43
2024-02-10T12:51:41.910Z,81.16
2024-02-10T12:54:11.737Z,80.18
2024-02-10T12:56:39.285Z,80.79
2024-02-10T12:59:08.370Z,81.19
2024-02-10T13:01:35.036Z,80.29
2024-02-10T13:04:04.228Z,81.66
2024-02-10T13:06:33.986Z,81.50
2024-02-10T13:09:00.626Z,81.42
2024-02-10T13:11:27.511Z,81.36
2024-02-10T13:13:56.441Z,82.02
2024-02-10T13:16:23.431Z,80.57
2024-02-10T13:18:50.144Z,80.31
2024-02-10T13:21:19.017Z,80.87
2024-02-10T13:23:45.655Z,81.81
2024-02-10T13:26:15.083Z,80.48
2024-02-10T13:28:46.428Z,79.65
2024-02-10T13:31:13.871Z,81.11
2024-02-10T13:33:41.985Z,81.06
2024-02-10T13:36:22.231Z,80.87
2024-02-10T13:39:07.309Z,80.11
2024-02-10T13:41:52.152Z,80.90
2024-02-10T13:44:37.111Z,80.22
2024-02-10T13:47:22.092Z,80.53
2024-02-10T13:50:06.813Z,81.70
2024-02-10T13:52:51.732Z,82.63
2024-02-10T13:55:36.594Z,81.76
2024-02-10T13:58:12.185Z,81.43
2024-02-10T14:00:45.370Z,81.77
2024-02-10T14:03:14.436Z,80.79
2024-02-10T14:05:48.706Z,82.13
2024-02-10T14:08:16.367Z,81.59
2024-02-10T14:10:56.998Z,80.96
2024-02-10T14:13:26.989Z,80.23
2024-02-10T14:15:58.354Z,80.21
2024-02-10T14:18:30.485Z,80.20
2024-02-10T14:21:24.214Z,80.75
2024-02-10T14:23:50.778Z,80.17
2024-02-10T14:26:26.454Z,80.12
2024-02-10T14:28:56.650Z,81.53
2024-02-10T14:31:23.738Z,80.51
2024-02-10T14:33:58.868Z,80.87
2024-02-10T14:36:39.239Z,79.82
2024-02-10T14:39:14.595Z,80.44
2024-02-10T14:41:42.964Z,79.74
2024-02-10T14:44:11.353Z,79.69
2024-02-10T14:46:43.976Z,80.39
2024-02-10T14:49:15.171Z,79.25
2024-02-10T14:51:44.292Z,79.55
2024-02-10T14:54:11.131Z,78.67
2024-02-10T14:56:39.662Z,78.53
2024-02-10T14:59:07.093Z,79.75
2024-02-10T15:01:35.537Z,79.96
2024-02-10T15:04:06.960Z,80.20
2024-02-10T15:06:36.142Z,79.76
2024-02-10T15:09:09.333Z,79.77
2024-02-10T15:11:38.122Z,79.71
2024-02-10T15:14:08.264Z,79.02
2024-02-10T15:16:35.414Z,78.69
2024-02-10T15:19:02.102Z,79.45
2024-02-10T15:21:33.942Z,78.92
2024-02-10T15:24:01.057Z,79.62
2024-02-10T15:26:27.994Z,79.64
2024-02-10T15:28:55.016Z,80.02
2024-02-10T15:31:22.964Z,80.07
2024-02-10T15:33:57.377Z,79.37
2024-02-10T15:36:28.349Z,80.21
2024-02-10T15:39:02.523Z,80.25
2024-02-10T15:41:29.340Z,79.96
2024-02-10T15:43:56.453Z,80.05
2024-02-10T15:46:23.268Z,80.51
2024-02-10T15:48:54.633Z,80.38
2024-02-10T15:51:22.144Z,80.76
2024-02-10T15:53:48.740Z,80.78
2024-02-10T15:56:15.195Z,80.39
2024-02-10T15:58:50.634Z,80.93
2024-02-10T16:01:18.788Z,80.82
2024-02-10T16:03:45.545Z,80.75
2024-02-10T16:06:12.314Z,81.11
2024-02-10T16:08:45.739Z,81.62
2024-02-10T16:11:13.199Z,81.55
2024-02-10T16:13:40.870Z,82.27
2024-02-10T16:16:09.047Z,82.36
2024-02-10T16:18:36.444Z,82.54
2024-02-10T16:21:03.012Z,82.70
2024-02-10T16:23:29.415Z,82.81
2024-02-10T16:25:58.194Z,83.42
2024-02-10T16:28:24.983Z,82.79
2024-02-10T16:30:51.577Z,83.42
2024-02-10T16:33:18.728Z,82.85
2024-02-10T16:35:47.127Z,83.52
2024-02-10T16:38:13.988Z,83.49
2024-02-10T16:40:41.260Z,83.57
2024-02-10T16:43:08.964Z,83.91
2024-02-10T16:45:36.558Z,84.38
2024-02-10T16:48:04.579Z,83.98
2024-02-10T16:50:31.859Z,84.27
2024-02-10T16:53:06.307Z,84.26
2024-02-10T16:55:38.256Z,83.99
2024-02-10T16:58:09.068Z,84.75
2024-02-10T17:00:39.315Z,84.77
2024-02-10T17:03:09.038Z,84.61
2024-02-10T17:05:50.013Z,85.21
2024-02-10T17:08:16.864Z,84.72
2024-02-10T17:10:43.386Z,85.38
2024-02-10T17:13:10.924Z,84.82
2024-02-10T17:15:42.209Z,85.66
2024-02-10T17:18:16.394Z,85.41
2024-02-10T17:20:59.226Z,85.87
2024-02-10T17:23:26.189Z,86.56
2024-02-10T17:25:57.409Z,85.86
2024-02-10T17:28:25.083Z,86.46
2024-02-10T17:30:52.505Z,86.53
2024-02-10T17:33:23.552Z,86.40
2024-02-10T17:35:51.970Z,87.10
2024-02-10T17:38:22.848Z,87.15
2024-02-10T17:40:49.634Z,87.67
2024-02-10T17:43:21.787Z,87.55
2024-02-10T17:45:49.331Z,87.32
2024-02-10T17:48:23.682Z,88.17
2024-02-10T17:50:51.697Z,87.77
2024-02-10T17:53:29.139Z,88.34
2024-02-10T17:55:57.359Z,88.26
2024-02-10T17:58:30.249Z,88.39
2024-02-10T18:00:57.720Z,88.86
2024-02-10T18:03:25.626Z,88.70
2024-02-10T18:05:57.283Z,88.21
2024-02-10T18:08:24.899Z,88.29
2024-02-10T18:10:51.604Z,88.34
2024-02-10T18:13:18.565Z,88.71
2024-02-10T18:15:45.142Z,88.37
2024-02-10T18:18:12.270Z,89.14
2024-02-10T18:20:39.383Z,89.10
2024-02-10T18:23:11.300Z,88.68
2024-02-10T18:25:42.288Z,88.89
2024-02-10T18:28:14.831Z,88.71
2024-02-10T18:30:45.944Z,88.68
2024-02-10T18:33:14.690Z,88.61
2024-02-10T18:35:43.719Z,88.70
2024-02-10T18:38:12.562Z,88.92
2024-02-10T18:40:39.170Z,89.14
2024-02-10T18:43:05.596Z,89.63
2024-02-10T18:45:35.660Z,89.92
2024-02-10T18:48:03.163Z,90.01
2024-02-10T18:50:29.729Z,89.44
2024-02-10T18:52:58.319Z,89.37
2024-02-10T18:55:25.633Z,89.29
2024-02-10T18:57:52.154Z,89.28
2024-02-10T19:00:20.813Z,89.14
2024-02-10T19:02:50.669Z,89.05
2024-02-10T19:05:18.607Z,89.02
2024-02-10T19:07:46.399Z,89.38
2024-02-10T19:10:13.726Z,89.60
2024-02-10T19:12:41.345Z,89.77
2024-02-10T19:15:08.654Z,89.79
2024-02-10T19:17:41.105Z,90.24
2024-02-10T19:20:13.003Z,90.25
2024-02-10T19:22:40.224Z,90.16
2024-02-10T19:25:08.410Z,89.89
2024-02-10T19:27:36.671Z,90.43
2024-02-10T19:30:10.239Z,90.47
2024-02-10T19:32:41.452Z,89.90
2024-02-10T19:35:35.590Z,90.33
2024-02-10T19:38:02.579Z,90.12
2024-02-10T19:40:29.126Z,90.10
2024-02-10T19:42:56.925Z,90.10
2024-02-10T19:45:26.462Z,90.65
2024-02-10T19:47:54.105Z,90.31
2024-02-10T19:50:21.285Z,90.59
2024-02-10T19:52:48.301Z,90.77
2024-02-10T19:55:16.269Z,90.44
2024-02-10T19:57:43.094Z,90.91
2024-02-10T20:00:16.726Z,90.97
2024-02-10T20:02:43.712Z,91.23
2024-02-10T20:05:10.882Z,91.13
2024-02-10T20:07:39.211Z,90.71
2024-02-10T20:10:06.249Z,91.44
2024-02-10T20:12:32.840Z,91.53
2024-02-10T20:15:00.768Z,91.53
2024-02-10T20:17:32.166Z,91.15
2024-02-10T20:20:17.762Z,91.83
2024-02-10T20:22:45.525Z,91.07
2024-02-10T20:25:13.446Z,91.74
2024-02-10T20:27:42.896Z,92.19
2024-02-10T20:30:11.102Z,91.54
2024-02-10T20:32:37.703Z,92.28
2024-02-10T20:35:04.543Z,91.91
2024-02-10T20:37:31.312Z,91.85
2024-02-10T20:39:57.887Z,92.06
2024-02-10T20:42:27.333Z,92.44
2024-02-10T20:44:53.914Z,92.36
2024-02-10T20:47:20.498Z,92.32
2024-02-10T20:49:47.503Z,92.53
2024-02-10T20:52:15.220Z,92.30
2024-02-10T20:54:43.801Z,93.22
2024-02-10T20:57:12.047Z,93.17
2024-02-10T20:59:39.464Z,92.84
2024-02-10T21:02:07.847Z,93.17
2024-02-10T21:04:35.089Z,93.13
2024-02-10T21:07:04.356Z,93.13
2024-02-10T21:09:30.901Z,93.66
2024-02-10T21:12:00.065Z,93.63
2024-02-10T21:14:27.998Z,93.31
2024-02-10T21:16:58.216Z,94.12
2024-02-10T21:19:25.811Z,93.67
2024-02-10T21:21:52.312Z,94.11
2024-02-10T21:24:22.350Z,93.39
2024-02-10T21:26:50.055Z,93.80
2024-02-10T21:31:43.196Z,94.08
2024-02-10T21:34:10.138Z,94.33
2024-02-10T21:36:36.848Z,94.89
2024-02-10T21:39:11.393Z,94.86
2024-02-10T21:41:38.629Z,94.83
2024-02-10T21:44:06.072Z,94.89
2024-02-10T21:46:32.646Z,95.05
2024-02-10T21:48:59.530Z,95.22
2024-02-10T21:51:26.140Z,94.90
2024-02-10T21:53:55.729Z,94.83
2024-02-10T21:56:22.180Z,95.19
2024-02-10T21:58:51.604Z,95.10
2024-02-10T22:01:19.362Z,95.33
2024-02-10T22:03:46.104Z,95.55
2024-02-10T22:06:12.819Z,95.30
2024-02-10T22:08:39.401Z,95.25
2024-02-10T22:11:06.424Z,95.34
2024-02-10T22:13:33.254Z,95.50
2024-02-10T22:16:00.915Z,95.77
2024-02-10T22:18:30.364Z,95.52
2024-02-10T22:20:58.413Z,95.92
2024-02-10T22:23:24.841Z,96.43
2024-02-10T22:25:51.540Z,96.15
2024-02-10T22:28:17.993Z,96.18
2024-02-10T22:30:44.456Z,96.76
2024-02-10T22:33:11.532Z,97.20
2024-02-10T22:35:38.407Z,96.65
2024-02-10T22:38:08.079Z,97.17
2024-02-10T22:40:35.221Z,97.05
2024-02-10T22:43:01.865Z,97.27
2024-02-10T22:45:28.387Z,97.07
2024-02-10T22:47:55.588Z,97.54
2024-02-10T22:50:23.125Z,97.15
2024-02-10T22:52:51.030Z,97.49
2024-02-10T22:55:18.607Z,96.81
2024-02-10T22:57:45.191Z,97.13
2024-02-10T23:00:29.826Z,96.87
2024-02-10T23:02:56.433Z,97.51
2024-02-10T23:05:25.425Z,96.90
2024-02-10T23:07:51.986Z,97.58
2024-02-10T23:10:18.484Z,98.03
2024-02-10T23:12:51.103Z,97.91
2024-02-10T23:15:22.919Z,98.27
2024-02-10T23:17:50.422Z,97.61
2024-02-10T23:20:18.373Z,97.73
2024-02-10T23:22:45.012Z,97.62
2024-02-10T23:25:12.617Z,97.83
2024-02-10T23:27:40.519Z,97.63
2024-02-10T23:30:09.259Z,98.04
2024-02-10T23:32:39.210Z,97.15
2024-02-10T23:35:10.088Z,97.88
2024-02-10T23:37:38.255Z,98.19
2024-02-10T23:40:14.359Z,97.22
2024-02-10T23:42:43.546Z,97.88
2024-02-10T23:45:10.708Z,97.15
2024-02-10T23:47:37.218Z,97.14
2024-02-10T23:50:06.371Z,97.15
2024-02-10T23:52:32.991Z,96.89
2024-02-10T23:54:59.502Z,97.15
2024-02-10T23:57:25.985Z,97.26
2024-02-10T23:59:52.524Z,97.48
